Time;durP1;ratioP1;P1;durP2;ratioP2;P2;SDS_P1;SDS_P2;PMS_P1;PMS_P2;Temp;Humidity;BMP_temperature;BMP_pressure;BME280_temperature;BME280_humidity;BME280_pressure;Samples;Min_cycle;Max_cycle;Signal;HPM_P1;HPM_P2
2021/12/22 00:01:16;;;;;;;38.37;24.00;;;;;;;;;;5086605;28;20458;-80
2021/12/22 00:03:46;;;;;;;34.67;22.63;;;;;;;;;;5085944;28;20451;-78
2021/12/22 00:06:13;;;;;;;34.80;23.53;;;;;;;;;;5085742;28;20454;-78
2021/12/22 00:08:40;;;;;;;36.87;22.00;;;;;;;;;;5083493;28;20466;-80
2021/12/22 00:11:06;;;;;;;35.17;24.38;;;;;;;;;;5086056;28;20474;-79
2021/12/22 00:13:32;;;;;;;34.13;23.23;;;;;;;;;;5086609;28;20622;-80
2021/12/22 00:15:58;;;;;;;40.75;25.33;;;;;;;;;;5086020;28;20474;-80
2021/12/22 00:18:25;;;;;;;35.60;21.47;;;;;;;;;;5085564;28;20269;-80
2021/12/22 00:20:52;;;;;;;34.17;22.77;;;;;;;;;;5093663;28;20477;-79
2021/12/22 00:23:18;;;;;;;34.17;22.20;;;;;;;;;;5084345;28;20210;-80
2021/12/22 00:25:45;;;;;;;40.10;22.60;;;;;;;;;;5083522;28;20223;-78
2021/12/22 00:28:11;;;;;;;33.17;20.87;;;;;;;;;;5081498;28;20581;-79
2021/12/22 00:30:38;;;;;;;31.67;21.17;;;;;;;;;;5082070;28;20461;-79
2021/12/22 00:33:06;;;;;;;31.13;20.50;;;;;;;;;;5080990;28;20463;-79
2021/12/22 00:35:40;;;;;;;30.87;22.97;;;;;;;;;;5082031;28;20477;-78
2021/12/22 00:38:08;;;;;;;31.75;20.55;;;;;;;;;;5081967;28;20729;-78
2021/12/22 00:40:34;;;;;;;30.90;21.60;;;;;;;;;;5082561;28;20224;-80
2021/12/22 00:43:00;;;;;;;32.95;22.90;;;;;;;;;;5081142;28;20257;-78
2021/12/22 00:45:28;;;;;;;30.63;19.73;;;;;;;;;;5081023;28;20601;-79
2021/12/22 00:47:54;;;;;;;32.00;19.60;;;;;;;;;;5081902;28;20552;-79
2021/12/22 00:50:22;;;;;;;29.53;19.33;;;;;;;;;;5080504;28;20477;-79
2021/12/22 00:52:48;;;;;;;28.55;20.80;;;;;;;;;;5081360;28;20451;-79
2021/12/22 00:55:18;;;;;;;32.10;19.70;;;;;;;;;;5080203;28;20232;-79
2021/12/22 00:57:45;;;;;;;26.10;18.10;;;;;;;;;;5076893;28;20469;-77
2021/12/22 01:00:11;;;;;;;32.83;20.73;;;;;;;;;;5080182;28;20478;-79
2021/12/22 01:02:38;;;;;;;30.37;19.27;;;;;;;;;;5081297;28;20494;-79
2021/12/22 01:05:04;;;;;;;32.40;20.88;;;;;;;;;;5080507;28;20465;-79
2021/12/22 01:07:31;;;;;;;28.25;20.88;;;;;;;;;;5081569;28;20244;-79
2021/12/22 01:09:57;;;;;;;29.65;19.88;;;;;;;;;;5079810;28;20274;-79
2021/12/22 01:12:24;;;;;;;29.10;19.80;;;;;;;;;;5081376;28;20673;-79
2021/12/22 01:14:51;;;;;;;27.88;17.75;;;;;;;;;;5076627;28;20215;-79
2021/12/22 01:17:18;;;;;;;27.77;19.73;;;;;;;;;;5081286;28;20223;-79
2021/12/22 01:19:50;;;;;;;27.73;19.38;;;;;;;;;;5081898;28;20220;-79
2021/12/22 01:22:26;;;;;;;24.77;18.00;;;;;;;;;;5080637;28;20210;-79
2021/12/22 01:25:01;;;;;;;29.02;18.48;;;;;;;;;;5079894;28;20249;-79
2021/12/22 01:27:33;;;;;;;26.63;19.02;;;;;;;;;;5080102;28;20645;-79
2021/12/22 01:29:59;;;;;;;33.88;19.85;;;;;;;;;;5081112;28;20228;-79
2021/12/22 01:32:26;;;;;;;31.10;20.25;;;;;;;;;;5079409;28;20201;-79
2021/12/22 01:34:52;;;;;;;29.15;18.85;;;;;;;;;;5080021;28;20217;-79
2021/12/22 01:37:18;;;;;;;27.35;18.83;;;;;;;;;;5080775;28;20229;-79
2021/12/22 01:39:45;;;;;;;31.73;18.58;;;;;;;;;;5079940;28;20662;-79
2021/12/22 01:42:11;;;;;;;29.70;19.57;;;;;;;;;;5079338;28;20306;-79
2021/12/22 01:45:01;;;;;;;37.03;21.00;;;;;;;;;;5079132;28;20479;-79
2021/12/22 01:50:14;;;;;;;35.78;21.45;;;;;;;;;;5079363;28;20296;-79
2021/12/22 01:52:40;;;;;;;37.10;19.95;;;;;;;;;;5080519;28;20251;-79
2021/12/22 01:55:14;;;;;;;38.45;21.48;;;;;;;;;;5081243;28;20229;-79
2021/12/22 01:57:44;;;;;;;40.42;21.50;;;;;;;;;;5080496;28;20726;-80
2021/12/22 02:00:12;;;;;;;39.65;21.48;;;;;;;;;;5077161;28;20272;-79
2021/12/22 02:02:38;;;;;;;45.83;23.37;;;;;;;;;;5080986;28;20254;-79
2021/12/22 02:05:05;;;;;;;44.38;22.92;;;;;;;;;;5081904;28;20923;-79
2021/12/22 02:07:31;;;;;;;47.38;23.33;;;;;;;;;;5082673;28;20219;-79
2021/12/22 02:10:15;;;;;;;42.55;25.85;;;;;;;;;;5081136;28;20287;-79
2021/12/22 02:12:47;;;;;;;41.85;23.10;;;;;;;;;;5082748;28;20209;-79
2021/12/22 02:15:15;;;;;;;45.27;25.20;;;;;;;;;;5076695;28;20660;-79
2021/12/22 02:17:41;;;;;;;44.85;24.75;;;;;;;;;;5079969;28;20489;-79
2021/12/22 02:20:10;;;;;;;45.30;26.15;;;;;;;;;;5081370;28;20313;-80
2021/12/22 02:22:38;;;;;;;52.10;26.92;;;;;;;;;;5082633;28;20289;-80
2021/12/22 02:25:12;;;;;;;55.53;27.52;;;;;;;;;;5082436;28;20253;-79
2021/12/22 02:27:44;;;;;;;56.67;25.35;;;;;;;;;;5082067;28;20258;-79
2021/12/22 02:30:16;;;;;;;47.08;25.27;;;;;;;;;;5081736;28;20229;-79
2021/12/22 02:33:07;;;;;;;51.88;26.60;;;;;;;;;;5079457;28;20237;-78
2021/12/22 02:35:44;;;;;;;58.65;28.10;;;;;;;;;;5082428;28;20597;-79
2021/12/22 02:38:16;;;;;;;54.22;26.48;;;;;;;;;;5082672;28;20260;-79
2021/12/22 02:40:43;;;;;;;52.20;25.75;;;;;;;;;;5080677;28;20219;-77
2021/12/22 02:43:09;;;;;;;65.25;30.50;;;;;;;;;;5083147;28;20196;-79
2021/12/22 02:45:36;;;;;;;65.80;31.10;;;;;;;;;;5081610;28;20234;-79
2021/12/22 02:48:03;;;;;;;60.08;29.85;;;;;;;;;;5082857;28;20728;-80
2021/12/22 02:50:29;;;;;;;69.05;31.63;;;;;;;;;;5079265;28;20222;-79
2021/12/22 02:53:04;;;;;;;64.68;31.45;;;;;;;;;;5079606;28;20204;-79
2021/12/22 02:55:42;;;;;;;68.13;28.50;;;;;;;;;;5081820;28;20212;-79
2021/12/22 02:58:10;;;;;;;58.83;28.50;;;;;;;;;;5083308;28;20225;-79
2021/12/22 03:00:48;;;;;;;57.13;30.40;;;;;;;;;;5080517;28;20224;-79
2021/12/22 03:03:27;;;;;;;64.28;28.85;;;;;;;;;;5081062;28;20748;-79
2021/12/22 03:05:54;;;;;;;57.53;29.48;;;;;;;;;;5080493;28;20346;-79
2021/12/22 03:08:22;;;;;;;50.25;27.88;;;;;;;;;;5077812;28;20224;-79
2021/12/22 03:10:51;;;;;;;66.78;28.60;;;;;;;;;;5081099;28;20235;-79
2021/12/22 03:13:17;;;;;;;60.35;29.23;;;;;;;;;;5083160;28;20697;-79
2021/12/22 03:15:44;;;;;;;49.13;25.13;;;;;;;;;;5084545;28;20224;-78
2021/12/22 03:18:10;;;;;;;59.20;26.45;;;;;;;;;;5083791;28;20273;-79
2021/12/22 03:20:37;;;;;;;56.17;26.27;;;;;;;;;;5081274;28;20227;-79
2021/12/22 03:23:04;;;;;;;52.47;26.73;;;;;;;;;;5082926;28;20207;-79
2021/12/22 03:25:32;;;;;;;51.60;26.30;;;;;;;;;;5080005;28;20218;-79
2021/12/22 03:28:02;;;;;;;54.17;28.88;;;;;;;;;;5083480;28;20777;-78
2021/12/22 03:30:29;;;;;;;54.28;27.23;;;;;;;;;;5083663;28;20724;-79
2021/12/22 03:32:55;;;;;;;39.45;24.30;;;;;;;;;;5083333;28;20207;-79
2021/12/22 03:35:22;;;;;;;37.38;24.17;;;;;;;;;;5084159;28;20790;-79
2021/12/22 03:37:50;;;;;;;50.35;25.15;;;;;;;;;;5084587;28;20746;-79
2021/12/22 03:40:16;;;;;;;48.88;25.55;;;;;;;;;;5083318;28;20220;-79
2021/12/22 03:42:44;;;;;;;49.08;25.20;;;;;;;;;;5077243;28;20206;-79
2021/12/22 03:45:10;;;;;;;58.83;27.10;;;;;;;;;;5083101;28;20943;-79
2021/12/22 03:47:36;;;;;;;53.58;24.92;;;;;;;;;;5083740;28;20216;-79
2021/12/22 03:50:03;;;;;;;57.95;28.08;;;;;;;;;;5083574;28;20265;-79
2021/12/22 03:52:30;;;;;;;59.75;26.52;;;;;;;;;;5083651;28;20262;-79
2021/12/22 03:54:58;;;;;;;61.10;28.27;;;;;;;;;;5081759;28;20724;-79
2021/12/22 03:57:24;;;;;;;52.72;28.10;;;;;;;;;;5083838;28;20235;-80
2021/12/22 03:59:52;;;;;;;54.55;27.83;;;;;;;;;;5079755;28;20643;-79
2021/12/22 04:02:20;;;;;;;55.63;27.00;;;;;;;;;;5082215;28;20215;-79
2021/12/22 04:04:47;;;;;;;56.28;28.48;;;;;;;;;;5082009;28;20274;-79
2021/12/22 04:07:14;;;;;;;59.17;27.80;;;;;;;;;;5082874;28;20266;-79
2021/12/22 04:09:40;;;;;;;47.88;26.65;;;;;;;;;;5083027;28;20245;-79
2021/12/22 04:12:07;;;;;;;54.15;27.40;;;;;;;;;;5081920;28;20207;-79
2021/12/22 04:14:33;;;;;;;67.43;25.88;;;;;;;;;;5081160;28;20641;-79
2021/12/22 04:17:01;;;;;;;50.55;23.67;;;;;;;;;;5081411;28;20248;-79
2021/12/22 04:19:27;;;;;;;57.38;24.52;;;;;;;;;;5081388;28;20231;-79
2021/12/22 04:21:53;;;;;;;77.53;25.60;;;;;;;;;;5082573;28;20667;-79
2021/12/22 04:24:20;;;;;;;43.25;23.23;;;;;;;;;;5082730;28;20643;-79
2021/12/22 04:26:46;;;;;;;44.17;21.70;;;;;;;;;;5084159;28;20284;-78
2021/12/22 04:29:13;;;;;;;59.35;21.08;;;;;;;;;;5083884;28;20286;-79
2021/12/22 04:31:40;;;;;;;45.80;23.02;;;;;;;;;;5083277;28;20200;-79
2021/12/22 04:34:08;;;;;;;47.95;23.10;;;;;;;;;;5082345;27;20227;-79
2021/12/22 04:36:35;;;;;;;130.73;29.52;;;;;;;;;;5083410;28;20709;-79
2021/12/22 04:39:01;;;;;;;109.43;29.40;;;;;;;;;;5081517;28;20655;-79
2021/12/22 04:41:28;;;;;;;43.20;22.77;;;;;;;;;;5080861;28;20207;-79
2021/12/22 04:43:54;;;;;;;49.03;22.00;;;;;;;;;;5082484;28;20258;-78
2021/12/22 04:46:21;;;;;;;40.75;21.60;;;;;;;;;;5082372;28;20209;-78
2021/12/22 04:48:47;;;;;;;43.08;23.25;;;;;;;;;;5081656;28;20197;-79
2021/12/22 04:51:24;;;;;;;48.85;24.58;;;;;;;;;;5084311;28;20210;-79
2021/12/22 04:53:54;;;;;;;41.63;23.15;;;;;;;;;;5083923;28;20340;-79
2021/12/22 04:56:21;;;;;;;54.40;23.52;;;;;;;;;;5083545;28;20224;-79
2021/12/22 04:58:47;;;;;;;47.65;22.63;;;;;;;;;;5081696;28;20223;-79
2021/12/22 05:01:13;;;;;;;43.03;21.67;;;;;;;;;;5081020;28;20204;-76
2021/12/22 05:03:40;;;;;;;47.83;24.20;;;;;;;;;;5082247;28;20203;-79
2021/12/22 05:06:06;;;;;;;39.33;22.23;;;;;;;;;;5079715;28;20238;-79
2021/12/22 05:08:34;;;;;;;49.25;23.85;;;;;;;;;;5083097;28;20226;-79
2021/12/22 05:11:00;;;;;;;52.83;24.33;;;;;;;;;;5084837;28;20230;-79
2021/12/22 05:13:26;;;;;;;45.08;23.92;;;;;;;;;;5083340;28;20744;-79
2021/12/22 05:15:53;;;;;;;52.80;25.55;;;;;;;;;;5079913;28;20231;-80
2021/12/22 05:18:24;;;;;;;45.80;23.15;;;;;;;;;;5083240;28;20221;-79
2021/12/22 05:20:52;;;;;;;48.25;24.10;;;;;;;;;;5084348;28;20224;-79
2021/12/22 05:23:18;;;;;;;49.05;23.27;;;;;;;;;;5084264;28;21151;-78
2021/12/22 05:25:46;;;;;;;55.03;25.08;;;;;;;;;;5083239;28;20234;-79
2021/12/22 05:28:12;;;;;;;40.33;22.88;;;;;;;;;;5083449;28;20224;-78
2021/12/22 05:30:38;;;;;;;50.65;24.33;;;;;;;;;;5084188;28;20226;-80
2021/12/22 05:33:05;;;;;;;41.47;21.75;;;;;;;;;;5088709;28;20237;-78
2021/12/22 05:35:31;;;;;;;48.65;23.00;;;;;;;;;;5082400;28;20289;-79
2021/12/22 05:37:57;;;;;;;51.80;23.88;;;;;;;;;;5078236;28;20223;-79
2021/12/22 05:40:27;;;;;;;69.70;25.35;;;;;;;;;;5080833;28;20231;-79
2021/12/22 05:42:55;;;;;;;52.80;26.23;;;;;;;;;;5082404;28;20262;-79
2021/12/22 05:45:21;;;;;;;44.85;23.25;;;;;;;;;;5080576;28;20320;-79
2021/12/22 05:47:48;;;;;;;42.92;22.25;;;;;;;;;;5081333;28;20218;-79
2021/12/22 05:50:14;;;;;;;47.38;25.98;;;;;;;;;;5077187;28;20222;-79
2021/12/22 05:52:40;;;;;;;54.20;24.20;;;;;;;;;;5079618;28;20199;-79
2021/12/22 05:55:06;;;;;;;61.20;25.13;;;;;;;;;;5081754;28;20213;-80
2021/12/22 05:57:33;;;;;;;44.65;22.02;;;;;;;;;;5081409;28;20224;-79
2021/12/22 06:00:00;;;;;;;56.45;22.08;;;;;;;;;;5080810;28;20263;-79
2021/12/22 06:02:27;;;;;;;59.55;22.10;;;;;;;;;;5077840;28;20289;-79
2021/12/22 06:04:53;;;;;;;40.47;22.02;;;;;;;;;;5080131;28;20274;-79
2021/12/22 06:07:19;;;;;;;39.33;21.90;;;;;;;;;;5081758;28;20221;-79
2021/12/22 06:09:45;;;;;;;47.67;21.67;;;;;;;;;;5080908;28;20267;-78
2021/12/22 06:12:12;;;;;;;50.85;22.77;;;;;;;;;;5080828;28;20209;-79
2021/12/22 06:14:38;;;;;;;41.50;21.60;;;;;;;;;;5079021;28;20270;-79
2021/12/22 06:17:06;;;;;;;55.15;21.73;;;;;;;;;;5079684;28;20266;-79
2021/12/22 06:19:32;;;;;;;41.95;21.83;;;;;;;;;;5075461;28;20225;-79
2021/12/22 06:21:58;;;;;;;46.15;24.55;;;;;;;;;;5080967;28;20205;-79
2021/12/22 06:24:24;;;;;;;52.88;22.83;;;;;;;;;;5080517;28;20774;-79
2021/12/22 06:26:51;;;;;;;44.95;22.27;;;;;;;;;;5078312;28;20233;-80
2021/12/22 06:29:17;;;;;;;44.00;20.35;;;;;;;;;;5080756;28;20229;-78
2021/12/22 06:31:43;;;;;;;46.30;22.23;;;;;;;;;;5080749;28;20629;-78
2021/12/22 06:34:11;;;;;;;41.78;22.42;;;;;;;;;;5079399;28;21847;-79
2021/12/22 06:36:37;;;;;;;57.85;25.45;;;;;;;;;;5078771;28;20734;-79
2021/12/22 06:39:04;;;;;;;41.90;21.52;;;;;;;;;;5078491;28;20230;-79
2021/12/22 06:41:31;;;;;;;55.70;24.63;;;;;;;;;;5078137;28;20200;-80
2021/12/22 06:43:57;;;;;;;40.92;22.35;;;;;;;;;;5079812;28;20267;-78
2021/12/22 06:46:24;;;;;;;38.10;21.40;;;;;;;;;;5081739;28;20261;-79
2021/12/22 06:48:50;;;;;;;53.05;23.10;;;;;;;;;;5080570;28;20209;-78
2021/12/22 06:51:17;;;;;;;36.22;21.80;;;;;;;;;;5083173;28;20711;-79
2021/12/22 06:53:44;;;;;;;38.20;21.70;;;;;;;;;;5081620;28;20229;-79
2021/12/22 06:56:10;;;;;;;52.70;25.10;;;;;;;;;;5081304;28;20198;-78
2021/12/22 06:58:37;;;;;;;35.47;20.65;;;;;;;;;;5081529;28;20222;-79
2021/12/22 07:01:03;;;;;;;44.00;24.40;;;;;;;;;;5082508;28;20693;-79
2021/12/22 07:03:30;;;;;;;46.20;23.00;;;;;;;;;;5084873;28;20208;-79
2021/12/22 07:05:56;;;;;;;43.25;22.13;;;;;;;;;;5085148;28;20224;-79
2021/12/22 07:08:23;;;;;;;40.22;20.13;;;;;;;;;;5082199;28;20248;-79
2021/12/22 07:10:50;;;;;;;64.75;23.58;;;;;;;;;;5080101;28;20274;-79
2021/12/22 07:13:16;;;;;;;38.30;21.02;;;;;;;;;;5084641;28;20208;-79
2021/12/22 07:15:43;;;;;;;38.72;20.85;;;;;;;;;;5084628;28;20273;-77
2021/12/22 07:18:11;;;;;;;43.20;21.55;;;;;;;;;;5083612;28;20802;-80
2021/12/22 07:20:37;;;;;;;42.53;20.80;;;;;;;;;;5083223;28;20723;-79
2021/12/22 07:23:03;;;;;;;32.65;19.02;;;;;;;;;;5084774;28;20255;-79
2021/12/22 07:25:31;;;;;;;40.20;21.63;;;;;;;;;;5083553;28;20243;-79
2021/12/22 07:27:57;;;;;;;43.80;22.95;;;;;;;;;;5082205;28;20231;-79
2021/12/22 07:30:24;;;;;;;47.92;21.85;;;;;;;;;;5082191;28;20279;-78
2021/12/22 07:32:51;;;;;;;47.55;22.88;;;;;;;;;;5083298;28;20588;-79
2021/12/22 07:35:19;;;;;;;47.70;23.38;;;;;;;;;;5083389;28;20627;-79
2021/12/22 07:37:47;;;;;;;59.78;24.08;;;;;;;;;;5080446;28;20762;-78
2021/12/22 07:40:15;;;;;;;48.60;23.90;;;;;;;;;;5082542;28;22275;-79
2021/12/22 07:42:43;;;;;;;38.63;21.13;;;;;;;;;;5083202;28;20202;-76
2021/12/22 07:45:11;;;;;;;40.22;22.85;;;;;;;;;;5083373;28;20227;-78
2021/12/22 07:47:37;;;;;;;45.97;22.38;;;;;;;;;;5083923;28;20221;-79
2021/12/22 07:50:04;;;;;;;39.30;22.00;;;;;;;;;;5083180;28;20268;-79
2021/12/22 07:52:30;;;;;;;52.47;23.65;;;;;;;;;;5083241;28;20200;-78
2021/12/22 07:54:56;;;;;;;41.42;21.60;;;;;;;;;;5083975;28;20595;-78
2021/12/22 07:57:23;;;;;;;38.60;19.75;;;;;;;;;;5084953;28;20271;-79
2021/12/22 07:59:51;;;;;;;42.65;21.30;;;;;;;;;;5085120;28;20279;-79
2021/12/22 08:02:17;;;;;;;46.05;22.70;;;;;;;;;;5086223;28;20694;-78
2021/12/22 08:04:44;;;;;;;49.13;22.67;;;;;;;;;;5078772;28;20220;-78
2021/12/22 08:07:10;;;;;;;45.67;21.90;;;;;;;;;;5082471;28;20773;-79
2021/12/22 08:09:36;;;;;;;50.38;22.30;;;;;;;;;;5080935;28;20226;-79
2021/12/22 08:12:05;;;;;;;44.05;21.40;;;;;;;;;;5083420;28;20868;-79
2021/12/22 08:14:31;;;;;;;42.45;20.70;;;;;;;;;;5081151;28;20280;-78
2021/12/22 08:16:59;;;;;;;49.30;23.77;;;;;;;;;;5083323;28;20797;-79
2021/12/22 08:19:25;;;;;;;54.00;22.58;;;;;;;;;;5080718;28;20605;-79
2021/12/22 08:21:51;;;;;;;48.83;21.23;;;;;;;;;;5079770;28;20201;-78
2021/12/22 08:24:17;;;;;;;42.58;21.35;;;;;;;;;;5082858;28;20232;-79
2021/12/22 08:26:44;;;;;;;35.85;20.77;;;;;;;;;;5074417;28;20293;-79
2021/12/22 08:29:10;;;;;;;41.45;22.20;;;;;;;;;;5082117;28;20621;-79
2021/12/22 08:31:36;;;;;;;43.63;23.92;;;;;;;;;;5082426;28;20688;-79
2021/12/22 08:34:05;;;;;;;48.95;23.35;;;;;;;;;;5080414;28;20232;-79
2021/12/22 08:39:15;;;;;;;42.15;22.40;;;;;;;;;;5080471;28;20246;-79
2021/12/22 08:41:47;;;;;;;40.53;22.00;;;;;;;;;;5078049;28;20288;-79
2021/12/22 08:44:14;;;;;;;53.88;23.35;;;;;;;;;;5077345;28;20236;-77
2021/12/22 08:46:43;;;;;;;41.50;21.83;;;;;;;;;;5079725;28;20297;-79
2021/12/22 08:49:11;;;;;;;44.67;22.77;;;;;;;;;;5081148;28;20739;-79
2021/12/22 08:51:37;;;;;;;43.33;21.30;;;;;;;;;;5082582;28;20208;-79
2021/12/22 08:54:03;;;;;;;46.88;24.20;;;;;;;;;;5082236;28;21011;-79
2021/12/22 08:56:30;;;;;;;58.67;25.50;;;;;;;;;;5080926;28;20229;-79
2021/12/22 08:58:56;;;;;;;57.13;25.10;;;;;;;;;;5081419;28;20235;-79
2021/12/22 09:01:23;;;;;;;49.03;24.85;;;;;;;;;;5079204;28;20243;-79
2021/12/22 09:03:50;;;;;;;46.25;22.80;;;;;;;;;;5080409;28;20218;-79
2021/12/22 09:06:17;;;;;;;39.13;21.00;;;;;;;;;;5079941;28;20704;-78
2021/12/22 09:08:44;;;;;;;45.40;26.47;;;;;;;;;;5081615;28;20256;-79
2021/12/22 09:11:11;;;;;;;51.67;24.40;;;;;;;;;;5083158;28;20453;-80
2021/12/22 09:13:38;;;;;;;49.08;25.42;;;;;;;;;;5082796;28;20207;-79
2021/12/22 09:16:05;;;;;;;50.60;25.55;;;;;;;;;;5082827;28;20237;-80
2021/12/22 09:18:31;;;;;;;53.90;25.00;;;;;;;;;;5078053;28;20280;-79
2021/12/22 09:20:57;;;;;;;50.63;24.58;;;;;;;;;;5081025;28;20469;-79
2021/12/22 09:23:25;;;;;;;52.55;25.70;;;;;;;;;;5082462;28;20207;-79
2021/12/22 09:25:51;;;;;;;49.00;25.05;;;;;;;;;;5081080;28;20574;-79
2021/12/22 09:28:18;;;;;;;50.53;27.67;;;;;;;;;;5077487;28;20559;-80
2021/12/22 09:30:45;;;;;;;47.63;25.77;;;;;;;;;;5079623;28;20223;-78
2021/12/22 09:33:12;;;;;;;45.47;26.92;;;;;;;;;;5079435;28;20463;-79
2021/12/22 09:35:38;;;;;;;49.47;26.37;;;;;;;;;;5079773;28;20636;-79
2021/12/22 09:38:05;;;;;;;51.10;25.73;;;;;;;;;;5080874;28;20561;-78
2021/12/22 09:40:33;;;;;;;56.87;25.57;;;;;;;;;;5079777;28;20471;-79
2021/12/22 09:42:59;;;;;;;51.45;26.27;;;;;;;;;;5082026;28;20445;-79
2021/12/22 09:45:26;;;;;;;47.70;26.50;;;;;;;;;;5080979;28;20259;-79
2021/12/22 09:48:04;;;;;;;56.58;28.85;;;;;;;;;;5081123;28;20583;-78
2021/12/22 09:50:44;;;;;;;51.40;27.73;;;;;;;;;;5081118;27;20230;-79
2021/12/22 09:53:10;;;;;;;59.40;28.23;;;;;;;;;;5081477;28;20457;-80
2021/12/22 09:55:38;;;;;;;58.87;27.77;;;;;;;;;;5081837;28;20504;-79
2021/12/22 09:58:05;;;;;;;60.55;29.83;;;;;;;;;;5082163;28;20464;-79
2021/12/22 10:00:34;;;;;;;58.78;30.15;;;;;;;;;;5081088;28;20228;-79
2021/12/22 10:03:00;;;;;;;63.60;31.90;;;;;;;;;;5082498;28;20319;-79
2021/12/22 10:05:26;;;;;;;55.80;29.20;;;;;;;;;;5079340;28;20463;-79
2021/12/22 10:08:06;;;;;;;54.60;29.43;;;;;;;;;;5081679;28;20223;-80
2021/12/22 10:10:33;;;;;;;56.42;27.95;;;;;;;;;;5080615;28;20489;-79
2021/12/22 10:13:06;;;;;;;75.90;34.23;;;;;;;;;;5082120;28;20621;-79
2021/12/22 10:15:34;;;;;;;62.87;31.63;;;;;;;;;;5082359;28;20569;-79
2021/12/22 10:18:07;;;;;;;66.93;32.00;;;;;;;;;;5083868;28;20459;-78
2021/12/22 10:20:33;;;;;;;69.60;31.93;;;;;;;;;;5086953;28;20526;-79
2021/12/22 10:23:00;;;;;;;67.80;31.03;;;;;;;;;;5086501;28;20500;-79
2021/12/22 10:25:29;;;;;;;69.20;32.47;;;;;;;;;;5083694;28;20493;-79
2021/12/22 10:27:58;;;;;;;56.83;29.37;;;;;;;;;;5085616;28;21182;-78
2021/12/22 10:30:30;;;;;;;60.53;31.43;;;;;;;;;;5085901;28;20465;-79
2021/12/22 10:33:07;;;;;;;64.00;31.93;;;;;;;;;;5088143;28;20478;-79
2021/12/22 10:35:34;;;;;;;54.50;29.47;;;;;;;;;;5082463;28;20470;-79
2021/12/22 10:38:01;;;;;;;64.57;30.50;;;;;;;;;;5084559;28;20470;-79
2021/12/22 10:40:29;;;;;;;47.77;25.47;;;;;;;;;;5083287;28;20462;-79
2021/12/22 10:42:56;;;;;;;52.83;29.67;;;;;;;;;;5084270;28;20446;-79
2021/12/22 10:45:23;;;;;;;58.87;29.90;;;;;;;;;;5083952;28;20465;-79
2021/12/22 10:50:37;;;;;;;47.30;28.83;;;;;;;;;;5084614;28;20545;-79
2021/12/22 10:53:04;;;;;;;54.67;29.50;;;;;;;;;;5081481;28;20485;-77
2021/12/22 10:55:37;;;;;;;54.50;29.03;;;;;;;;;;5083997;28;20551;-79
2021/12/22 10:58:14;;;;;;;52.03;28.43;;;;;;;;;;5084431;28;20478;-76
2021/12/22 11:00:40;;;;;;;55.10;30.87;;;;;;;;;;5084735;28;20503;-78
2021/12/22 11:03:08;;;;;;;47.13;27.60;;;;;;;;;;5085197;28;20496;-79
2021/12/22 11:05:42;;;;;;;51.97;27.70;;;;;;;;;;5084692;28;21465;-80
2021/12/22 11:08:17;;;;;;;50.30;29.30;;;;;;;;;;5081882;28;20485;-80
2021/12/22 11:10:43;;;;;;;56.13;28.93;;;;;;;;;;5083063;28;20477;-78
2021/12/22 11:13:10;;;;;;;49.50;28.10;;;;;;;;;;5086467;28;20450;-79
2021/12/22 11:15:40;;;;;;;49.90;28.67;;;;;;;;;;5084694;28;20469;-79
2021/12/22 11:18:10;;;;;;;53.87;30.67;;;;;;;;;;5085357;28;20469;-78
2021/12/22 11:20:36;;;;;;;51.20;27.60;;;;;;;;;;5083782;28;20494;-80
2021/12/22 11:23:12;;;;;;;53.30;27.30;;;;;;;;;;5085223;28;20460;-79
2021/12/22 11:25:39;;;;;;;53.73;25.37;;;;;;;;;;5080854;28;20478;-80
2021/12/22 11:28:06;;;;;;;49.80;26.90;;;;;;;;;;5082708;28;20520;-79
2021/12/22 11:30:32;;;;;;;57.30;31.00;;;;;;;;;;5082753;28;20481;-80
2021/12/22 11:32:59;;;;;;;51.80;28.60;;;;;;;;;;5083811;28;20443;-80
2021/12/22 11:35:26;;;;;;;48.53;27.70;;;;;;;;;;5080659;28;20466;-79
2021/12/22 11:37:53;;;;;;;62.57;29.73;;;;;;;;;;5083541;28;20490;-80
2021/12/22 11:40:22;;;;;;;57.63;30.17;;;;;;;;;;5085352;28;20482;-80
2021/12/22 11:42:48;;;;;;;55.67;29.70;;;;;;;;;;5084278;28;20468;-79
2021/12/22 11:45:16;;;;;;;47.77;28.77;;;;;;;;;;5084120;28;20523;-79
2021/12/22 11:47:44;;;;;;;49.53;28.90;;;;;;;;;;5084172;28;20475;-77
2021/12/22 11:50:15;;;;;;;53.17;28.37;;;;;;;;;;5083511;28;20520;-79
2021/12/22 11:52:44;;;;;;;43.17;27.53;;;;;;;;;;5083141;28;20441;-80
2021/12/22 11:55:12;;;;;;;57.03;29.07;;;;;;;;;;5083405;28;20470;-79
2021/12/22 11:57:39;;;;;;;55.03;27.63;;;;;;;;;;5081578;28;20486;-79
2021/12/22 12:00:21;;;;;;;59.43;30.67;;;;;;;;;;5083982;28;20480;-79
2021/12/22 12:02:48;;;;;;;51.00;28.00;;;;;;;;;;5084830;28;20442;-80
2021/12/22 12:05:16;;;;;;;58.93;29.93;;;;;;;;;;5082411;28;20466;-79
2021/12/22 12:07:46;;;;;;;55.47;29.70;;;;;;;;;;5084210;28;20514;-77
2021/12/22 12:10:31;;;;;;;52.60;29.10;;;;;;;;;;5082402;28;20462;-80
2021/12/22 12:13:02;;;;;;;51.73;28.67;;;;;;;;;;5083874;28;21322;-79
2021/12/22 12:15:52;;;;;;;49.47;26.93;;;;;;;;;;5084950;28;20470;-79
2021/12/22 12:21:44;;;;;;;56.90;29.20;;;;;;;;;;5082753;28;20600;-80
2021/12/22 12:24:29;;;;;;;54.63;27.53;;;;;;;;;;5083211;28;20466;-80
2021/12/22 12:26:57;;;;;;;54.87;29.90;;;;;;;;;;5082755;28;20494;-79
2021/12/22 12:29:38;;;;;;;50.63;28.87;;;;;;;;;;5078613;28;20459;-80
2021/12/22 12:32:05;;;;;;;58.90;29.73;;;;;;;;;;5078310;28;20465;-80
2021/12/22 12:34:31;;;;;;;56.57;31.07;;;;;;;;;;5080838;28;20478;-79
2021/12/22 12:36:57;;;;;;;59.20;31.03;;;;;;;;;;5082501;28;20469;-80
2021/12/22 12:39:39;;;;;;;57.83;31.87;;;;;;;;;;5082733;28;20470;-79
2021/12/22 12:42:06;;;;;;;68.33;32.70;;;;;;;;;;5082247;28;20442;-80
2021/12/22 12:44:34;;;;;;;55.23;32.50;;;;;;;;;;5083558;28;20467;-79
2021/12/22 12:47:17;;;;;;;69.87;31.57;;;;;;;;;;5079626;28;20858;-80
2021/12/22 12:49:44;;;;;;;67.73;33.80;;;;;;;;;;5080294;28;20462;-78
2021/12/22 12:52:21;;;;;;;80.37;35.90;;;;;;;;;;5082311;28;20457;-79
2021/12/22 12:54:48;;;;;;;66.93;32.80;;;;;;;;;;5081998;28;21116;-80
2021/12/22 12:57:38;;;;;;;64.17;32.10;;;;;;;;;;5082692;28;20474;-79
2021/12/22 13:00:08;;;;;;;67.40;32.83;;;;;;;;;;5082235;28;21025;-80
2021/12/22 13:02:35;;;;;;;61.87;32.73;;;;;;;;;;5082908;28;20454;-79
2021/12/22 13:05:04;;;;;;;69.73;31.33;;;;;;;;;;5081891;28;20516;-80
2021/12/22 13:07:31;;;;;;;62.33;30.70;;;;;;;;;;5081791;28;20545;-80
2021/12/22 13:10:01;;;;;;;55.70;28.13;;;;;;;;;;5082489;28;20492;-80
2021/12/22 13:12:45;;;;;;;61.47;33.30;;;;;;;;;;5082193;28;20458;-80
2021/12/22 13:17:59;;;;;;;55.67;29.03;;;;;;;;;;5084194;28;20489;-79
2021/12/22 13:20:28;;;;;;;52.10;27.33;;;;;;;;;;5083231;28;20481;-80
2021/12/22 13:22:55;;;;;;;55.43;28.10;;;;;;;;;;5080372;28;20454;-80
2021/12/22 13:25:24;;;;;;;53.30;28.17;;;;;;;;;;5082061;28;20483;-79
2021/12/22 13:27:52;;;;;;;54.63;27.00;;;;;;;;;;5082628;28;20487;-79
2021/12/22 13:30:22;;;;;;;56.60;28.23;;;;;;;;;;5081714;28;21063;-79
2021/12/22 13:32:55;;;;;;;59.43;30.10;;;;;;;;;;5082192;28;20443;-79
2021/12/22 13:35:27;;;;;;;58.40;28.93;;;;;;;;;;5081928;28;20512;-80
2021/12/22 13:37:53;;;;;;;51.97;27.23;;;;;;;;;;5079060;28;20486;-79
2021/12/22 13:40:32;;;;;;;63.50;29.27;;;;;;;;;;5079832;28;20483;-80
2021/12/22 13:42:58;;;;;;;55.17;28.37;;;;;;;;;;5082268;28;20442;-80
2021/12/22 13:45:26;;;;;;;62.57;29.27;;;;;;;;;;5081998;28;20472;-80
2021/12/22 13:47:52;;;;;;;60.63;32.00;;;;;;;;;;5082619;28;20465;-79
2021/12/22 13:50:18;;;;;;;56.87;27.53;;;;;;;;;;5081729;28;20463;-80
2021/12/22 13:52:45;;;;;;;51.63;28.50;;;;;;;;;;5081093;28;20450;-79
2021/12/22 13:55:11;;;;;;;58.87;27.70;;;;;;;;;;5082492;28;20489;-80
2021/12/22 13:57:38;;;;;;;54.80;27.93;;;;;;;;;;5082571;28;20469;-80
2021/12/22 14:00:05;;;;;;;47.70;28.13;;;;;;;;;;5081858;28;21162;-80
2021/12/22 14:02:34;;;;;;;53.33;27.80;;;;;;;;;;5082756;28;20469;-80
2021/12/22 14:05:12;;;;;;;54.53;27.90;;;;;;;;;;5081063;28;20569;-80
2021/12/22 14:07:38;;;;;;;60.43;28.60;;;;;;;;;;5082928;28;20492;-80
2021/12/22 14:10:10;;;;;;;59.40;28.83;;;;;;;;;;5080487;28;20470;-80
2021/12/22 14:12:37;;;;;;;59.03;27.40;;;;;;;;;;5082277;28;20579;-80
2021/12/22 14:15:04;;;;;;;55.37;26.90;;;;;;;;;;5081051;28;20479;-79
2021/12/22 14:17:32;;;;;;;54.17;29.17;;;;;;;;;;5081925;28;20466;-79
2021/12/22 14:20:05;;;;;;;55.83;27.83;;;;;;;;;;5081597;28;20475;-79
2021/12/22 14:22:33;;;;;;;47.97;28.20;;;;;;;;;;5082417;28;20456;-79
2021/12/22 14:25:00;;;;;;;51.07;26.53;;;;;;;;;;5080282;28;20474;-79
2021/12/22 14:27:30;;;;;;;45.40;26.73;;;;;;;;;;5081460;28;20474;-80
2021/12/22 14:29:58;;;;;;;56.63;26.83;;;;;;;;;;5080200;28;20459;-80
2021/12/22 14:32:26;;;;;;;49.77;27.07;;;;;;;;;;5081752;28;20554;-80
2021/12/22 14:34:59;;;;;;;53.20;25.27;;;;;;;;;;5079315;28;20622;-80
2021/12/22 14:37:29;;;;;;;56.37;27.63;;;;;;;;;;5081686;28;20469;-79